Terminal Aerodrome Forecast
Issued by NWS Louisville, KY

Home | Current Version | Previous Version | Text Only | Print | Product List | Glossary Off
Versions: 1 2 3 4 5 6 7 8 9 10 11 12 13 14 15

000
FTUS43 KLMK 060500
TAFBWG
TAF
KBWG 060520Z 0606/0706 00000KT P6SM FEW080
      TEMPO 0610/0612 5SM BR
     FM061400 16006KT P6SM SCT050 SCT100
     FM070000 00000KT P6SM FEW080=

USA.gov is the U.S. government's official web portal to all federal, state and local government web resources and services.